SBI1732 USNN-UUDD
Flight info
| Callsign | SBI1732 |
|---|---|
| Flight time | N/A |
| Altitude | 38000 |
| Route | KUPAD1N KUPAD R370 PIGUR T580 SADER W63 IDKOM L992 GIMAK T796 GIKES P982 BADIK N604 UNANI T382 UMPER N604 GEMPU M864 IBROT T535 OKNAN T787 URAGO URAGO3M |
| Aircraft | B738/M-SDE2E3FGHIRWXY/LB1 |
Departure
| Time | 2026-04-15 01:49 |
|---|---|
| Airport | Nizhnevartovsk Airport (USNN) |
Arrival
| Time | N/A |
|---|---|
| Airport | Domodedovo International Airport (UUDD) |
| Time | Latitude | Longitude | Altitude | Speed | Heading |
|---|---|---|---|---|---|
| 2026-04-15 01:37 | 60.95101 | 76.49135 | 190 ft | 0 kts | 132° |
| 2026-04-15 01:42 | 60.95095 | 76.49150 | 195 ft | 5 kts | 132° |
| 2026-04-15 01:42 | 60.95050 | 76.49163 | 190 ft | 8 kts | 214° |
| 2026-04-15 01:42 | 60.95010 | 76.49089 | 186 ft | 8 kts | 222° |
| 2026-04-15 01:43 | 60.94971 | 76.49017 | 185 ft | 7 kts | 222° |
| 2026-04-15 01:43 | 60.94934 | 76.48949 | 183 ft | 7 kts | 218° |
| 2026-04-15 01:43 | 60.94888 | 76.48891 | 189 ft | 9 kts | 210° |
| 2026-04-15 01:43 | 60.94826 | 76.48807 | 187 ft | 12 kts | 217° |
| 2026-04-15 01:44 | 60.94756 | 76.48678 | 185 ft | 15 kts | 221° |
| 2026-04-15 01:44 | 60.94692 | 76.48549 | 185 ft | 10 kts | 242° |
| 2026-04-15 01:44 | 60.94717 | 76.48433 | 194 ft | 9 kts | 314° |
| 2026-04-15 01:44 | 60.94740 | 76.48320 | 185 ft | 9 kts | 256° |
| 2026-04-15 01:45 | 60.94728 | 76.48194 | 183 ft | 9 kts | 264° |
| 2026-04-15 01:45 | 60.94724 | 76.48072 | 186 ft | 9 kts | 266° |
| 2026-04-15 01:45 | 60.94720 | 76.47951 | 184 ft | 8 kts | 266° |
| 2026-04-15 01:45 | 60.94713 | 76.47829 | 185 ft | 10 kts | 253° |
| 2026-04-15 01:46 | 60.94651 | 76.47676 | 193 ft | 19 kts | 222° |
| 2026-04-15 01:46 | 60.94538 | 76.47465 | 184 ft | 24 kts | 222° |
| 2026-04-15 01:46 | 60.94415 | 76.47233 | 185 ft | 23 kts | 223° |
| 2026-04-15 01:46 | 60.94330 | 76.47076 | 189 ft | 23 kts | 222° |
| 2026-04-15 01:47 | 60.94233 | 76.46894 | 190 ft | 24 kts | 222° |
| 2026-04-15 01:47 | 60.94110 | 76.46667 | 195 ft | 25 kts | 222° |
| 2026-04-15 01:47 | 60.93984 | 76.46461 | 196 ft | 15 kts | 203° |
| 2026-04-15 01:47 | 60.93927 | 76.46384 | 189 ft | 8 kts | 289° |
| 2026-04-15 01:48 | 60.93976 | 76.46417 | 186 ft | 9 kts | 40° |
| 2026-04-15 01:48 | 60.94001 | 76.46464 | 182 ft | 0 kts | 42° |
| 2026-04-15 01:48 | 60.94003 | 76.46467 | 183 ft | 5 kts | 42° |
| 2026-04-15 01:49 | 60.94232 | 76.46892 | 189 ft | 84 kts | 42° |
| 2026-04-15 01:49 | 60.94850 | 76.48036 | 200 ft | 152 kts | 38° |
| 2026-04-15 01:49 | 60.95745 | 76.49690 | 602 ft | 181 kts | 41° |
| 2026-04-15 01:49 | 60.96651 | 76.51407 | 1823 ft | 170 kts | 37° |
| 2026-04-15 01:50 | 60.97532 | 76.53050 | 2537 ft | 186 kts | 37° |
| 2026-04-15 01:50 | 60.98571 | 76.54971 | 2758 ft | 209 kts | 38° |
| 2026-04-15 01:50 | 60.99651 | 76.57020 | 3493 ft | 211 kts | 39° |
| 2026-04-15 01:50 | 61.00869 | 76.58644 | 4168 ft | 211 kts | 13° |
| 2026-04-15 01:51 | 61.02348 | 76.58686 | 4737 ft | 224 kts | 346° |
| 2026-04-15 01:51 | 61.03750 | 76.57136 | 5466 ft | 237 kts | 319° |
| 2026-04-15 01:51 | 61.04635 | 76.54213 | 6384 ft | 248 kts | 289° |
| 2026-04-15 01:51 | 61.04690 | 76.50654 | 7277 ft | 258 kts | 265° |
| 2026-04-15 01:52 | 61.04263 | 76.46998 | 8119 ft | 265 kts | 259° |
| 2026-04-15 01:52 | 61.03717 | 76.43320 | 8986 ft | 269 kts | 258° |
| 2026-04-15 01:52 | 61.03147 | 76.39612 | 9892 ft | 273 kts | 258° |
| 2026-04-15 01:52 | 61.02572 | 76.35844 | 10565 ft | 282 kts | 258° |
| 2026-04-15 01:53 | 61.01969 | 76.31799 | 10773 ft | 307 kts | 258° |
| 2026-04-15 01:53 | 61.01329 | 76.27466 | 11194 ft | 322 kts | 258° |
| 2026-04-15 01:53 | 61.00670 | 76.23010 | 11900 ft | 328 kts | 258° |
| 2026-04-15 01:53 | 61.00004 | 76.18494 | 12701 ft | 331 kts | 258° |
| 2026-04-15 01:54 | 60.99333 | 76.13923 | 13490 ft | 335 kts | 258° |
| 2026-04-15 01:54 | 60.98656 | 76.09306 | 14214 ft | 339 kts | 259° |
| 2026-04-15 01:54 | 60.97971 | 76.04635 | 14872 ft | 342 kts | 259° |
| 2026-04-15 01:54 | 60.97279 | 75.99916 | 15572 ft | 346 kts | 259° |
| 2026-04-15 01:55 | 60.96579 | 75.95154 | 16270 ft | 349 kts | 259° |
| 2026-04-15 01:55 | 60.95871 | 75.90347 | 16966 ft | 353 kts | 259° |
| 2026-04-15 01:55 | 60.95154 | 75.85496 | 17645 ft | 356 kts | 259° |
| 2026-04-15 01:55 | 60.94427 | 75.80590 | 18328 ft | 360 kts | 259° |
| 2026-04-15 01:56 | 60.93699 | 75.75697 | 18899 ft | 364 kts | 260° |
| 2026-04-15 01:56 | 60.92953 | 75.70690 | 19455 ft | 368 kts | 260° |
| 2026-04-15 01:56 | 60.92198 | 75.65636 | 20017 ft | 372 kts | 260° |
| 2026-04-15 01:56 | 60.91435 | 75.60539 | 20564 ft | 375 kts | 260° |
| 2026-04-15 01:57 | 60.90667 | 75.55386 | 21126 ft | 378 kts | 262° |
| 2026-04-15 01:57 | 60.90180 | 75.50108 | 21642 ft | 374 kts | 271° |
| 2026-04-15 01:57 | 60.89936 | 75.44781 | 22192 ft | 376 kts | 272° |
| 2026-04-15 01:57 | 60.89737 | 75.39404 | 22726 ft | 379 kts | 273° |
| 2026-04-15 01:58 | 60.89540 | 75.33984 | 23241 ft | 383 kts | 273° |
| 2026-04-15 01:58 | 60.89327 | 75.28513 | 23748 ft | 387 kts | 272° |
| 2026-04-15 01:58 | 60.89096 | 75.22983 | 24159 ft | 390 kts | 272° |
| 2026-04-15 01:58 | 60.88847 | 75.17387 | 24579 ft | 393 kts | 272° |
| 2026-04-15 01:59 | 60.88587 | 75.11773 | 24983 ft | 396 kts | 272° |
| 2026-04-15 01:59 | 60.88318 | 75.06112 | 25373 ft | 399 kts | 272° |
| 2026-04-15 01:59 | 60.88042 | 75.00420 | 25774 ft | 402 kts | 272° |
| 2026-04-15 01:59 | 60.87764 | 74.94757 | 26145 ft | 405 kts | 271° |
| 2026-04-15 02:00 | 60.87473 | 74.88907 | 26556 ft | 408 kts | 272° |
| 2026-04-15 02:00 | 60.87184 | 74.83085 | 26955 ft | 411 kts | 271° |
| 2026-04-15 02:00 | 60.86892 | 74.77309 | 27338 ft | 414 kts | 271° |
| 2026-04-15 02:00 | 60.86589 | 74.71392 | 27639 ft | 418 kts | 272° |
| 2026-04-15 02:01 | 60.86283 | 74.65438 | 27940 ft | 422 kts | 272° |
| 2026-04-15 02:01 | 60.85972 | 74.59415 | 28289 ft | 425 kts | 272° |
| 2026-04-15 02:01 | 60.85655 | 74.53365 | 28669 ft | 427 kts | 272° |
| 2026-04-15 02:01 | 60.85332 | 74.47256 | 29027 ft | 430 kts | 272° |
| 2026-04-15 02:02 | 60.85007 | 74.41141 | 29366 ft | 433 kts | 272° |
| 2026-04-15 02:02 | 60.84788 | 74.37056 | 29580 ft | 435 kts | 272° |
| 2026-04-15 02:02 | 60.84454 | 74.30867 | 29897 ft | 438 kts | 272° |
| 2026-04-15 02:02 | 60.84004 | 74.22611 | 30307 ft | 441 kts | 272° |
| 2026-04-15 02:03 | 60.83658 | 74.16339 | 30576 ft | 444 kts | 271° |
| 2026-04-15 02:03 | 60.83421 | 74.12076 | 30757 ft | 445 kts | 271° |
| 2026-04-15 02:03 | 60.83067 | 74.05775 | 31072 ft | 445 kts | 271° |
| 2026-04-15 02:03 | 60.82715 | 73.99555 | 31332 ft | 445 kts | 271° |
| 2026-04-15 02:04 | 60.82355 | 73.93231 | 31622 ft | 446 kts | 271° |
| 2026-04-15 02:04 | 60.81991 | 73.86896 | 31971 ft | 446 kts | 271° |
| 2026-04-15 02:04 | 60.81627 | 73.80607 | 32350 ft | 444 kts | 271° |
| 2026-04-15 02:04 | 60.81260 | 73.74326 | 32702 ft | 444 kts | 271° |
| 2026-04-15 02:05 | 60.80890 | 73.68034 | 33019 ft | 444 kts | 270° |
| 2026-04-15 02:05 | 60.80519 | 73.61762 | 33347 ft | 444 kts | 270° |
| 2026-04-15 02:05 | 60.80145 | 73.55493 | 33694 ft | 443 kts | 270° |
| 2026-04-15 02:05 | 60.79768 | 73.49248 | 34035 ft | 442 kts | 270° |
| 2026-04-15 02:06 | 60.79389 | 73.42992 | 34331 ft | 442 kts | 270° |
| 2026-04-15 02:06 | 60.79012 | 73.36826 | 34511 ft | 442 kts | 270° |
| 2026-04-15 02:06 | 60.78627 | 73.30575 | 34724 ft | 443 kts | 270° |
| 2026-04-15 02:06 | 60.78239 | 73.24315 | 34945 ft | 443 kts | 270° |
| 2026-04-15 02:07 | 60.77847 | 73.18052 | 35218 ft | 443 kts | 269° |
| 2026-04-15 02:07 | 60.77452 | 73.11813 | 35481 ft | 442 kts | 269° |
| 2026-04-15 02:07 | 60.77054 | 73.05561 | 35719 ft | 442 kts | 269° |
| 2026-04-15 02:07 | 60.76655 | 72.99325 | 35937 ft | 442 kts | 269° |
| 2026-04-15 02:08 | 60.76251 | 72.93074 | 36174 ft | 442 kts | 269° |
| 2026-04-15 02:08 | 60.75846 | 72.86845 | 36418 ft | 442 kts | 269° |
| 2026-04-15 02:08 | 60.75440 | 72.80619 | 36648 ft | 442 kts | 269° |
| 2026-04-15 02:08 | 60.75029 | 72.74388 | 36862 ft | 442 kts | 269° |
| 2026-04-15 02:09 | 60.74674 | 72.68167 | 37037 ft | 440 kts | 271° |
| 2026-04-15 02:09 | 60.74392 | 72.62008 | 37206 ft | 440 kts | 271° |
| 2026-04-15 02:09 | 60.74132 | 72.55776 | 37382 ft | 440 kts | 272° |
| 2026-04-15 02:09 | 60.73872 | 72.49526 | 37627 ft | 440 kts | 271° |
| 2026-04-15 02:10 | 60.73604 | 72.43299 | 37862 ft | 439 kts | 271° |
| 2026-04-15 02:10 | 60.73326 | 72.37077 | 38055 ft | 439 kts | 271° |
| 2026-04-15 02:10 | 60.73039 | 72.30867 | 38225 ft | 440 kts | 271° |
| 2026-04-15 02:10 | 60.72744 | 72.24625 | 38296 ft | 442 kts | 271° |
| 2026-04-15 02:11 | 60.72136 | 72.12105 | 38289 ft | 442 kts | 270° |
| 2026-04-15 02:11 | 60.71520 | 71.99755 | 38276 ft | 438 kts | 270° |
| 2026-04-15 02:12 | 60.70895 | 71.87440 | 38305 ft | 434 kts | 270° |
| 2026-04-15 02:12 | 60.70267 | 71.75206 | 38312 ft | 432 kts | 270° |
| 2026-04-15 02:13 | 60.69628 | 71.62980 | 38327 ft | 433 kts | 270° |
| 2026-04-15 02:13 | 60.68976 | 71.50717 | 38330 ft | 435 kts | 270° |
| 2026-04-15 02:14 | 60.68314 | 71.38478 | 38338 ft | 438 kts | 270° |
| 2026-04-15 02:14 | 60.67630 | 71.26084 | 38304 ft | 440 kts | 270° |
| 2026-04-15 02:15 | 60.66932 | 71.13655 | 38332 ft | 442 kts | 270° |
| 2026-04-15 02:15 | 60.66218 | 71.01157 | 38348 ft | 445 kts | 270° |
| 2026-04-15 02:16 | 60.65488 | 70.88590 | 38347 ft | 446 kts | 269° |
| 2026-04-15 02:16 | 60.64750 | 70.76092 | 38344 ft | 447 kts | 269° |
| 2026-04-15 02:17 | 60.63993 | 70.63508 | 38346 ft | 447 kts | 269° |
| 2026-04-15 02:17 | 60.63230 | 70.50969 | 38347 ft | 445 kts | 269° |
| 2026-04-15 02:18 | 60.62419 | 70.38464 | 38348 ft | 445 kts | 268° |
| 2026-04-15 02:18 | 60.61547 | 70.26011 | 38348 ft | 444 kts | 268° |
| 2026-04-15 02:19 | 60.60663 | 70.13579 | 38350 ft | 443 kts | 268° |
| 2026-04-15 02:19 | 60.59777 | 70.01186 | 38355 ft | 442 kts | 268° |
| 2026-04-15 02:20 | 60.58883 | 69.88805 | 38341 ft | 441 kts | 268° |
| 2026-04-15 02:20 | 60.57987 | 69.76549 | 38346 ft | 441 kts | 268° |
| 2026-04-15 02:21 | 60.57073 | 69.64209 | 38356 ft | 441 kts | 268° |
| 2026-04-15 02:21 | 60.56146 | 69.51853 | 38364 ft | 442 kts | 268° |
| 2026-04-15 02:22 | 60.55206 | 69.39494 | 38362 ft | 444 kts | 268° |
| 2026-04-15 02:23 | 60.53767 | 69.20867 | 38322 ft | 445 kts | 267° |
| 2026-04-15 02:23 | 60.52791 | 69.08443 | 38359 ft | 446 kts | 267° |
| 2026-04-15 02:24 | 60.51808 | 68.96080 | 38372 ft | 447 kts | 267° |
| 2026-04-15 02:24 | 60.50808 | 68.83636 | 38372 ft | 448 kts | 267° |
| 2026-04-15 02:25 | 60.49789 | 68.71139 | 38374 ft | 448 kts | 266° |
| 2026-04-15 02:25 | 60.48748 | 68.58635 | 38371 ft | 449 kts | 266° |
| 2026-04-15 02:26 | 60.47702 | 68.46238 | 38371 ft | 449 kts | 266° |
| 2026-04-15 02:26 | 60.46636 | 68.33744 | 38378 ft | 448 kts | 266° |
| 2026-04-15 02:27 | 60.45562 | 68.21303 | 38371 ft | 448 kts | 266° |
| 2026-04-15 02:27 | 60.44477 | 68.08872 | 38384 ft | 447 kts | 266° |
| 2026-04-15 02:28 | 60.43384 | 67.96474 | 38382 ft | 447 kts | 266° |
| 2026-04-15 02:28 | 60.42287 | 67.84190 | 38382 ft | 445 kts | 266° |
| 2026-04-15 02:29 | 60.41175 | 67.71857 | 38388 ft | 445 kts | 265° |
| 2026-04-15 02:29 | 60.40054 | 67.59556 | 38401 ft | 444 kts | 265° |
| 2026-04-15 02:30 | 60.38923 | 67.47280 | 38403 ft | 444 kts | 265° |
| 2026-04-15 02:30 | 60.37777 | 67.34983 | 38413 ft | 444 kts | 265° |
| 2026-04-15 02:31 | 60.36620 | 67.22688 | 38363 ft | 445 kts | 265° |
| 2026-04-15 02:31 | 60.35454 | 67.10434 | 38403 ft | 444 kts | 265° |
| 2026-04-15 02:32 | 60.34276 | 66.98178 | 38417 ft | 445 kts | 265° |
| 2026-04-15 02:32 | 60.33093 | 66.85989 | 38412 ft | 446 kts | 265° |
| 2026-04-15 02:33 | 60.31888 | 66.73700 | 38417 ft | 446 kts | 265° |
| 2026-04-15 02:33 | 60.30670 | 66.61407 | 38419 ft | 447 kts | 264° |
| 2026-04-15 02:34 | 60.29440 | 66.49128 | 38419 ft | 446 kts | 264° |
| 2026-04-15 02:34 | 60.28207 | 66.36927 | 38418 ft | 447 kts | 264° |
| 2026-04-15 02:35 | 60.26954 | 66.24662 | 38425 ft | 447 kts | 264° |
| 2026-04-15 02:35 | 60.25689 | 66.12388 | 38434 ft | 447 kts | 264° |
| 2026-04-15 02:36 | 60.24413 | 66.00130 | 38432 ft | 447 kts | 264° |
| 2026-04-15 02:36 | 60.23127 | 65.87899 | 38400 ft | 446 kts | 264° |
| 2026-04-15 02:37 | 60.21832 | 65.75705 | 38426 ft | 445 kts | 264° |
| 2026-04-15 02:37 | 60.20529 | 65.63532 | 38445 ft | 445 kts | 264° |
| 2026-04-15 02:38 | 60.19215 | 65.51363 | 38447 ft | 445 kts | 264° |
| 2026-04-15 02:38 | 60.17911 | 65.39305 | 38447 ft | 445 kts | 264° |
| 2026-04-15 02:39 | 60.16592 | 65.27163 | 38450 ft | 444 kts | 263° |
| 2026-04-15 02:39 | 60.15262 | 65.15062 | 38446 ft | 443 kts | 263° |
| 2026-04-15 02:40 | 60.13918 | 65.02948 | 38451 ft | 443 kts | 263° |
| 2026-04-15 02:40 | 60.12568 | 64.90878 | 38454 ft | 444 kts | 263° |
| 2026-04-15 02:41 | 60.11666 | 64.78845 | 38446 ft | 433 kts | 277° |
| 2026-04-15 02:42 | 60.12150 | 64.55577 | 38421 ft | 432 kts | 278° |
| 2026-04-15 02:42 | 60.12357 | 64.43535 | 38455 ft | 432 kts | 277° |
| 2026-04-15 02:43 | 60.12532 | 64.31475 | 38476 ft | 432 kts | 277° |
| 2026-04-15 02:43 | 60.12694 | 64.19481 | 38476 ft | 433 kts | 277° |
| 2026-04-15 02:44 | 60.12848 | 64.07394 | 38480 ft | 434 kts | 277° |
| 2026-04-15 02:44 | 60.12897 | 63.95252 | 38466 ft | 439 kts | 270° |
| 2026-04-15 02:45 | 60.11448 | 63.83205 | 38433 ft | 451 kts | 253° |
| 2026-04-15 02:45 | 60.09030 | 63.71595 | 38479 ft | 452 kts | 252° |